Terminal Aerodrome Forecast
Issued by NWS

Home | Current Version | Previous Version | Graphics & Text | Print | Product List | Glossary On
Versions: 1 2 3 4 5 6 7 8 9 10 11 12 13 14 15 16 17
839
FTUS43 KIWX 301912 AAA
TAFSBN
TAF AMD
KSBN 301912Z 3019/0118 23014KT 6SM SHRA OVC035
      TEMPO 3019/3023 4SM -TSRA OVC025CB
     FM010300 15013G21KT 4SM SHRA VCTS OVC015CB WS020/20045KT
     FM010900 19013G23KT P6SM VCSH BKN060=

USA.gov is the U.S. government's official web portal to all federal, state and local government web resources and services.